Time;durP1;ratioP1;P1;durP2;ratioP2;P2;SDS_P1;SDS_P2;PMS_P1;PMS_P2;Temp;Humidity;BMP_temperature;BMP_pressure;BME280_temperature;BME280_humidity;BME280_pressure;Samples;Min_cycle;Max_cycle;Signal;HPM_P1;HPM_P2
2024/03/01 03:13:54;;;;;;;76.00;32.63;;;;;;;9.98;62.35;93984.81;6285229;22;20040;-87
2024/03/01 03:54:31;;;;;;;58.78;26.77;;;;;;;10.25;62.49;93984.72;6291659;22;20032;-87
2024/03/01 04:04:33;;;;;;;62.00;27.75;;;;;;;10.45;62.03;93986.47;6305714;22;20011;-86
2024/03/01 04:07:01;;;;;;;58.25;27.50;;;;;;;10.53;61.73;93997.44;6254920;22;20017;-86
2024/03/01 04:09:27;;;;;;;59.10;27.65;;;;;;;10.65;61.59;94000.19;6254212;22;20008;-87
2024/03/01 04:11:52;;;;;;;66.43;29.85;;;;;;;10.65;61.32;93991.59;6280090;22;20007;-88
2024/03/01 04:14:18;;;;;;;59.08;27.90;;;;;;;10.50;62.36;94008.25;6279740;22;19999;-87
2024/03/01 04:19:21;;;;;;;57.75;27.38;;;;;;;10.58;61.63;94004.59;6304190;22;20011;-87
2024/03/01 04:21:47;;;;;;;62.05;27.75;;;;;;;10.48;61.73;93996.47;6254530;22;20063;-87
2024/03/01 04:29:23;;;;;;;60.00;28.10;;;;;;;10.51;61.63;94002.06;6278635;22;20050;-86
2024/03/01 04:31:48;;;;;;;64.15;28.77;;;;;;;10.52;61.65;94010.63;6279837;22;20007;-87
2024/03/01 04:34:15;;;;;;;55.20;26.77;;;;;;;10.66;61.35;94021.78;6253894;22;20006;-87
2024/03/01 04:36:41;;;;;;;62.42;29.00;;;;;;;10.73;61.04;94014.75;6253629;22;20019;-87
2024/03/01 04:46:52;;;;;;;69.13;29.23;;;;;;;10.48;62.45;94036.25;6336361;22;20018;-87
2024/03/01 04:51:42;;;;;;;68.65;29.95;;;;;;;10.39;62.95;94036.69;6278514;22;20024;-86
2024/03/01 04:54:08;;;;;;;93.15;33.28;;;;;;;10.33;63.30;94036.50;6217022;23;20004;-87
2024/03/01 04:56:33;;;;;;;108.40;34.28;;;;;;;10.28;63.43;94040.69;6193334;23;20008;-87
2024/03/01 05:11:55;;;;;;;86.30;33.67;;;;;;;10.09;63.85;94058.72;6219942;23;20031;-87
2024/03/01 05:14:24;;;;;;;110.45;32.00;;;;;;;10.07;63.97;94060.72;6193640;23;20026;-86
2024/03/01 05:16:49;;;;;;;390.48;39.75;;;;;;;9.89;64.35;94058.75;6218272;23;20004;-87
2024/03/01 05:19:14;;;;;;;182.25;32.67;;;;;;;9.85;63.96;94059.34;6193605;23;20015;-86
2024/03/01 05:26:44;;;;;;;157.90;31.67;;;;;;;9.63;64.40;94069.13;6256614;22;20027;-87
2024/03/01 05:29:09;;;;;;;57.20;27.02;;;;;;;9.59;64.46;94058.34;6279324;22;19999;-86
2024/03/01 05:52:10;;;;;;;91.22;33.08;;;;;;;9.39;66.05;94085.09;6219396;23;20032;-87
2024/03/01 06:04:46;;;;;;;92.43;35.55;;;;;;;9.74;64.92;94084.13;6277817;22;20018;-87
2024/03/01 06:07:11;;;;;;;95.63;36.13;;;;;;;9.86;64.69;94105.91;6248113;22;20012;-87
2024/03/01 06:22:23;;;;;;;138.25;38.95;;;;;;;9.82;64.53;94117.66;6276430;22;20018;-87
2024/03/01 06:24:48;;;;;;;113.80;38.10;;;;;;;9.85;64.92;94124.28;6273788;22;20020;-87
2024/03/01 06:32:14;;;;;;;88.07;34.55;;;;;;;9.73;64.69;94118.88;6274278;22;20069;-87
2024/03/01 06:34:47;;;;;;;71.38;32.38;;;;;;;9.82;64.21;94129.88;6248092;22;20004;-86
2024/03/01 06:37:12;;;;;;;91.97;33.97;;;;;;;10.04;63.39;94126.06;6247369;22;20018;-87
2024/03/01 06:39:38;;;;;;;96.40;34.67;;;;;;;9.86;64.12;94115.47;6222644;22;20011;-87
2024/03/01 06:42:03;;;;;;;84.95;33.20;;;;;;;9.88;63.71;94119.50;6197553;22;20019;-86
2024/03/01 06:44:29;;;;;;;61.30;27.38;;;;;;;9.98;62.96;94126.88;6233890;22;20038;-87
2024/03/01 06:49:21;;;;;;;55.22;25.92;;;;;;;9.54;64.12;94123.84;6289641;22;20020;-86
2024/03/01 06:51:50;;;;;;;53.88;25.33;;;;;;;9.68;62.88;94126.47;6248143;22;20010;-86
2024/03/01 06:54:15;;;;;;;38.22;18.85;;;;;;;9.56;62.58;94137.44;6247653;22;20004;-86
2024/03/01 06:59:09;;;;;;;36.22;18.58;;;;;;;9.88;61.11;94140.28;6288603;22;20076;-86
2024/03/01 07:06:35;;;;;;;35.85;16.88;;;;;;;9.76;62.11;94150.44;6305655;22;20045;-87
2024/03/01 07:09:01;;;;;;;31.67;16.45;;;;;;;9.89;61.45;94161.84;6253028;22;20019;-86
2024/03/01 07:11:28;;;;;;;32.50;15.40;;;;;;;9.64;61.77;94141.63;6227726;22;20041;-86
2024/03/01 07:13:56;;;;;;;30.80;14.95;;;;;;;9.55;61.95;94146.22;6253188;22;20018;-86
2024/03/01 07:16:21;;;;;;;27.63;14.23;;;;;;;9.66;61.84;94147.44;6253305;22;20029;-86
2024/03/01 07:28:51;;;;;;;45.22;19.77;;;;;;;9.97;62.24;94159.81;6304928;22;20104;-86
2024/03/01 07:31:16;;;;;;;37.25;17.00;;;;;;;10.13;61.44;94157.84;6227546;22;20011;-86
2024/03/01 07:33:42;;;;;;;39.90;18.33;;;;;;;9.96;62.18;94163.44;6277761;22;20014;-87
2024/03/01 07:36:09;;;;;;;43.78;19.40;;;;;;;10.09;62.12;94157.44;6252401;22;20014;-86
2024/03/01 07:41:10;;;;;;;48.63;22.25;;;;;;;9.95;62.06;94166.22;6306787;22;20019;-87
2024/03/01 07:43:36;;;;;;;53.92;24.25;;;;;;;10.07;62.18;94154.25;6272659;22;20042;-87
2024/03/01 07:46:02;;;;;;;49.13;22.60;;;;;;;9.98;62.72;94168.44;6246839;22;20011;-86
2024/03/01 07:48:27;;;;;;;42.13;19.23;;;;;;;10.24;61.24;94174.63;6247986;22;20018;-87
2024/03/01 07:50:53;;;;;;;44.65;20.33;;;;;;;10.13;61.51;94163.84;6247520;22;20011;-87
2024/03/01 07:58:19;;;;;;;24.80;13.52;;;;;;;9.97;61.43;94166.81;6267602;22;20017;-86
2024/03/01 08:00:44;;;;;;;27.33;13.85;;;;;;;10.17;60.21;94164.25;6217222;23;20053;-87
2024/03/01 08:03:11;;;;;;;24.40;13.35;;;;;;;10.16;59.85;94158.22;6166968;23;20015;-86
2024/03/01 08:05:39;;;;;;;24.17;12.27;;;;;;;9.91;60.46;94168.44;6192242;23;20089;-86
2024/03/01 08:38:47;;;;;;;15.45;8.60;;;;;;;9.78;61.13;94171.81;6304201;22;20106;-87
2024/03/01 08:41:16;;;;;;;13.43;7.57;;;;;;;9.65;59.97;94163.19;6279870;22;20082;-85
2024/03/01 08:43:42;;;;;;;11.60;7.10;;;;;;;9.87;59.29;94172.41;6254300;22;20016;-87
2024/03/01 09:00:23;;;;;;;7.35;4.82;;;;;;;9.76;59.50;94170.41;6291145;22;20081;-88
2024/03/01 09:02:48;;;;;;;7.40;4.88;;;;;;;9.70;60.07;94171.22;6218224;23;20028;-87
2024/03/01 09:07:41;;;;;;;6.80;4.20;;;;;;;9.63;59.22;94163.41;6268117;22;20031;-86
2024/03/01 09:10:16;;;;;;;5.60;3.50;;;;;;;9.55;57.92;94166.97;6223694;22;20014;-86
2024/03/01 09:12:45;;;;;;;5.15;3.58;;;;;;;9.82;58.31;94156.63;6248973;22;20004;-86
2024/03/01 09:30:33;;;;;;;6.32;3.80;;;;;;;9.97;57.59;94164.22;6305456;22;20028;-86
2024/03/01 09:33:02;;;;;;;6.13;3.58;;;;;;;9.94;58.36;94159.44;6228053;22;20089;-86
2024/03/01 09:35:30;;;;;;;4.75;3.47;;;;;;;10.26;58.17;94162.22;6279325;22;20010;-86
2024/03/01 09:37:56;;;;;;;5.32;3.58;;;;;;;10.26;58.19;94144.84;6279444;22;20011;-86
2024/03/01 09:40:49;;;;;;;6.75;3.58;;;;;;;10.42;56.21;94148.84;6278325;22;20118;-87
2024/03/01 09:43:46;;;;;;;;;;;;;;;;;;;;;
2024/03/01 10:01:38;;;;;;;5.18;3.67;;;;;;;10.20;58.24;94145.63;6249368;22;20015;-87
2024/03/01 10:04:13;;;;;;;7.22;3.67;;;;;;;10.10;58.08;94145.25;6248261;22;20012;-86
2024/03/01 10:07:06;;;;;;;5.75;3.33;;;;;;;10.24;57.84;94141.63;6247983;22;19999;-88
2024/03/01 10:10:08;;;;;;;4.13;3.10;;;;;;;10.28;57.07;94145.44;6248218;22;20008;-86
2024/03/01 10:18:07;;;;;;;5.28;3.30;;;;;;;10.67;56.66;94148.19;6274064;22;20020;-86
2024/03/01 10:20:52;;;;;;;5.10;3.30;;;;;;;10.78;56.62;94144.19;6246860;22;20031;-86
2024/03/01 10:23:50;;;;;;;4.13;2.80;;;;;;;10.59;56.20;94143.22;6247532;22;20086;-86
2024/03/01 10:26:23;;;;;;;4.68;3.30;;;;;;;10.60;57.11;94152.63;6247113;22;20007;-87
2024/03/01 10:28:54;;;;;;;4.53;2.60;;;;;;;10.72;55.88;94144.00;6247410;22;19995;-87
2024/03/01 10:31:41;;;;;;;4.28;2.90;;;;;;;10.39;56.49;94144.03;6247202;22;20043;-85
2024/03/01 10:34:28;;;;;;;4.82;2.83;;;;;;;10.31;57.65;94139.84;6247119;22;20014;-87
2024/03/01 10:36:57;;;;;;;3.90;2.78;;;;;;;10.60;57.89;94139.63;6247700;22;20103;-87
2024/03/01 10:45:11;;;;;;;4.80;2.90;;;;;;;11.12;57.08;94138.63;6248702;22;20061;-86
2024/03/01 10:47:36;;;;;;;4.05;2.40;;;;;;;10.88;56.52;94139.34;6247560;22;20086;-87
2024/03/01 10:50:28;;;;;;;3.40;2.40;;;;;;;10.91;56.67;94129.31;6223396;22;20038;-86
2024/03/01 11:03:27;;;;;;;2.63;1.38;;;;;;;11.13;54.83;94116.00;6277961;22;20078;-86
2024/03/01 11:06:11;;;;;;;1.15;0.90;;;;;;;11.20;55.54;94124.59;6273258;22;20003;-86
2024/03/01 11:09:01;;;;;;;1.10;0.60;;;;;;;11.07;55.52;94125.44;6272749;22;20004;-86
2024/03/01 11:12:12;;;;;;;1.38;1.00;;;;;;;11.03;54.97;94115.66;6272750;22;20026;-86
2024/03/01 11:14:56;;;;;;;;;;;;;;;11.12;56.83;94125.63;6273187;22;20015;-86
2024/03/01 11:17:25;;;;;;;1.80;1.50;;;;;;;11.67;55.59;94111.28;6273218;22;19938;-86
2024/03/01 11:20:10;;;;;;;1.77;1.27;;;;;;;11.47;56.62;94103.63;6217504;22;20030;-86
2024/03/01 11:22:41;;;;;;;1.00;0.90;;;;;;;11.51;54.42;94104.78;6217512;23;20008;-86
2024/03/01 11:25:20;;;;;;;2.40;1.50;;;;;;;11.33;56.02;94103.69;6217388;23;20015;-87
2024/03/01 11:28:03;;;;;;;2.13;1.30;;;;;;;11.39;55.80;94094.25;6217284;23;20063;-86
2024/03/01 11:35:43;;;;;;;2.25;2.05;;;;;;;11.50;57.08;94095.41;6276208;22;20026;-87
2024/03/01 11:38:37;;;;;;;1.08;0.90;;;;;;;11.52;54.55;94088.97;6247155;22;20031;-86
2024/03/01 11:41:40;;;;;;;1.10;1.00;;;;;;;11.52;55.73;94093.38;6247861;22;20007;-87
2024/03/01 11:44:35;;;;;;;2.90;1.80;;;;;;;11.62;57.45;94085.88;6272813;22;20007;-86
2024/03/01 12:13:55;;;;;;;3.53;1.30;;;;;;;12.19;56.94;94056.38;6245398;23;20102;-87
2024/03/01 12:16:59;;;;;;;2.20;1.98;;;;;;;11.58;58.70;94037.03;6218767;23;20019;-87
2024/03/01 12:20:04;;;;;;;3.38;2.10;;;;;;;12.08;58.31;94044.84;6218990;23;20058;-87
2024/03/01 12:22:49;;;;;;;2.83;2.30;;;;;;;12.07;58.92;94051.88;6244144;23;20015;-87
2024/03/01 12:28:16;;;;;;;3.25;2.63;;;;;;;11.85;59.41;94035.00;6261480;22;20027;-86
2024/03/01 12:31:03;;;;;;;2.55;2.33;;;;;;;11.79;58.79;94034.06;6274365;22;20016;-87
2024/03/01 12:33:31;;;;;;;4.07;2.55;;;;;;;12.27;58.50;94041.22;6249024;22;20010;-87
2024/03/01 12:36:16;;;;;;;3.95;2.60;;;;;;;12.28;58.62;94035.03;6248690;22;20040;-87
2024/03/01 12:38:53;;;;;;;3.20;2.53;;;;;;;12.32;58.69;94032.78;6248276;22;20007;-87
2024/03/01 12:41:37;;;;;;;3.53;2.60;;;;;;;12.17;57.75;94020.09;6249112;22;20011;-86
2024/03/01 12:49:27;;;;;;;4.88;2.80;;;;;;;12.06;60.18;94026.03;6278981;22;21089;-86
2024/03/01 12:51:59;;;;;;;3.17;1.70;;;;;;;12.29;56.18;94017.56;6279653;22;20010;-86
2024/03/01 13:58:09;;;;;;;2.55;2.33;;;;;;;12.57;55.05;93984.97;6237446;22;20028;-87
2024/03/01 14:00:36;;;;;;;2.00;1.80;;;;;;;12.78;55.89;93986.28;6236149;23;20019;-87
2024/03/01 14:03:02;;;;;;;2.60;2.20;;;;;;;12.97;55.46;93974.00;6167716;23;20077;-86
2024/03/01 14:12:58;;;;;;;2.55;2.20;;;;;;;12.88;54.17;93966.47;6276167;22;20036;-87
2024/03/01 14:15:23;;;;;;;2.47;2.13;;;;;;;12.87;54.41;93972.72;6278773;22;20007;-87
2024/03/01 14:17:50;;;;;;;4.15;2.30;;;;;;;12.96;54.94;93967.94;6278538;22;20007;-87
2024/03/01 14:25:16;;;;;;;2.78;2.33;;;;;;;13.04;54.56;93966.84;6305716;22;20015;-85
2024/03/01 14:27:56;;;;;;;2.60;2.33;;;;;;;12.88;54.85;93966.47;6278017;22;20013;-86
2024/03/01 14:35:24;;;;;;;2.70;2.25;;;;;;;12.89;54.49;93967.28;6306457;22;20011;-87
2024/03/01 14:37:54;;;;;;;4.30;2.60;;;;;;;12.95;53.86;93958.53;6277846;22;20164;-87
2024/03/01 15:10:02;;;;;;;2.50;2.13;;;;;;;12.65;54.01;93958.56;6286195;22;20093;-86
2024/03/01 15:12:30;;;;;;;3.20;2.28;;;;;;;12.77;53.44;93946.34;6217136;23;20028;-85
2024/03/01 15:15:05;;;;;;;2.75;2.10;;;;;;;12.93;52.83;93946.72;6191491;23;20012;-86
2024/03/01 15:17:35;;;;;;;3.00;2.40;;;;;;;12.97;53.33;93947.88;6217009;23;20004;-86
2024/03/01 15:20:00;;;;;;;2.40;2.20;;;;;;;12.76;53.01;93936.16;6216468;23;20004;-87
2024/03/01 16:03:19;;;;;;;2.70;2.42;;;;;;;12.20;54.97;93928.41;6280455;22;20023;-86
2024/03/01 16:05:45;;;;;;;3.42;2.30;;;;;;;12.26;54.67;93926.75;6255585;22;20019;-86
2024/03/01 16:08:22;;;;;;;3.55;2.40;;;;;;;12.58;54.11;93937.75;6255108;22;20011;-86
2024/03/01 16:13:33;;;;;;;2.88;2.38;;;;;;;12.20;54.52;93911.97;6295441;22;20011;-86
2024/03/01 16:16:04;;;;;;;3.20;2.40;;;;;;;12.36;53.90;93929.63;6255404;22;20011;-86
2024/03/01 16:18:33;;;;;;;4.53;2.30;;;;;;;12.35;53.86;93920.22;6280892;22;20007;-87
2024/03/01 16:33:49;;;;;;;2.90;2.40;;;;;;;12.08;55.03;93923.13;6245451;22;20034;-87
2024/03/01 16:36:18;;;;;;;2.70;2.42;;;;;;;11.91;55.61;93929.94;6219590;23;19996;-87
2024/03/01 16:38:44;;;;;;;2.67;2.28;;;;;;;12.06;55.03;93925.16;6219748;23;20012;-87
2024/03/01 16:41:38;;;;;;;3.45;2.63;;;;;;;11.93;54.96;93941.75;6219703;23;20008;-87
2024/03/01 16:44:31;;;;;;;4.07;2.50;;;;;;;11.89;54.68;93937.97;6219289;23;20035;-86
2024/03/01 16:46:58;;;;;;;3.92;2.75;;;;;;;11.97;55.42;93926.47;6219779;23;20008;-87
2024/03/01 16:52:03;;;;;;;3.03;2.38;;;;;;;11.94;55.52;93929.53;6261535;22;20027;-86
2024/03/01 16:54:33;;;;;;;2.97;2.60;;;;;;;11.92;55.59;93934.94;6219336;23;20036;-86
2024/03/01 16:57:09;;;;;;;3.50;2.60;;;;;;;11.79;55.34;93942.09;6219157;23;20004;-87
2024/03/01 16:59:38;;;;;;;3.17;2.50;;;;;;;11.78;55.30;93932.66;6217691;23;20000;-86
2024/03/01 17:07:41;;;;;;;3.17;2.78;;;;;;;11.79;55.05;93927.25;6274452;22;20032;-87
2024/03/01 17:10:20;;;;;;;4.30;2.67;;;;;;;11.59;54.91;93926.66;6226895;22;20085;-87
2024/03/01 17:12:45;;;;;;;2.78;2.40;;;;;;;11.62;55.48;93932.22;6249054;22;20004;-86
2024/03/01 17:15:11;;;;;;;2.83;2.50;;;;;;;11.64;55.44;93932.81;6248601;22;20082;-86
2024/03/01 17:43:24;;;;;;;4.60;3.35;;;;;;;11.34;58.08;93940.47;6275377;22;20019;-86
2024/03/01 17:45:50;;;;;;;3.97;3.20;;;;;;;11.24;58.42;93938.38;6278565;22;20007;-87
2024/03/01 17:53:25;;;;;;;4.50;3.83;;;;;;;10.94;58.24;93946.78;6305067;22;20019;-87
2024/03/01 19:00:44;;;;;;;5.10;3.67;;;;;;;10.33;59.43;93945.53;6274303;22;20109;-88
2024/03/01 19:13:24;;;;;;;4.75;2.90;;;;;;;9.90;60.15;93942.66;6275976;22;20004;-87
2024/03/01 19:15:49;;;;;;;3.38;2.85;;;;;;;9.77;60.00;93931.31;6278529;22;20011;-86
2024/03/01 19:18:15;;;;;;;3.63;3.00;;;;;;;9.75;60.61;93935.91;6252696;22;20018;-86
2024/03/01 19:56:57;;;;;;;4.65;3.88;;;;;;;9.35;60.90;93943.78;6269905;22;20027;-87
2024/03/01 19:59:23;;;;;;;4.45;3.47;;;;;;;9.44;60.31;93944.34;6192634;23;20020;-88
2024/03/01 20:01:49;;;;;;;4.53;3.45;;;;;;;9.55;59.82;93943.72;6217263;23;20011;-86
2024/03/01 20:04:14;;;;;;;4.78;3.65;;;;;;;9.55;59.91;93953.31;6216769;23;20015;-86
2024/03/01 20:24:27;;;;;;;5.38;3.00;;;;;;;9.52;59.61;93932.94;6287455;22;20027;-87
2024/03/01 20:26:52;;;;;;;3.47;2.92;;;;;;;9.39;60.07;93933.78;6277932;22;20025;-87
2024/03/01 20:29:18;;;;;;;3.20;2.80;;;;;;;9.56;59.13;93939.38;6252187;22;20012;-86
2024/03/01 20:38:17;;;;;;;3.03;2.63;;;;;;;9.55;59.63;93938.53;6272177;22;20057;-87
2024/03/01 20:40:42;;;;;;;2.90;2.60;;;;;;;9.42;59.79;93940.38;6219090;23;20020;-87
2024/03/01 20:43:08;;;;;;;3.00;2.50;;;;;;;9.33;59.83;93930.22;6218878;23;20015;-86
2024/03/01 20:45:34;;;;;;;3.08;2.33;;;;;;;9.38;60.43;93942.56;6193718;23;20008;-86
2024/03/01 20:48:00;;;;;;;2.83;2.53;;;;;;;9.37;60.04;93935.78;6193874;23;20016;-87
2024/03/01 20:52:51;;;;;;;3.63;2.47;;;;;;;9.17;60.37;93936.59;6249738;22;20008;-87
2024/03/01 20:55:18;;;;;;;2.40;1.88;;;;;;;9.30;60.50;93937.59;6249024;22;20008;-87
2024/03/01 20:57:43;;;;;;;2.03;1.77;;;;;;;9.13;60.63;93932.00;6224230;22;20056;-86
2024/03/01 21:00:10;;;;;;;2.97;1.95;;;;;;;8.92;61.63;93930.41;6248937;22;20087;-86
2024/03/01 21:02:36;;;;;;;3.25;2.17;;;;;;;9.12;60.41;93923.44;6223707;22;20011;-86
2024/03/01 21:10:05;;;;;;;4.28;2.15;;;;;;;9.47;59.42;93940.56;6289557;22;20279;-86
2024/03/01 21:12:33;;;;;;;3.63;2.20;;;;;;;9.47;59.19;93930.19;6230067;22;20015;-87
2024/03/01 21:15:02;;;;;;;2.97;1.80;;;;;;;9.48;58.96;93942.16;6305376;22;20002;-86
2024/03/01 21:27:22;;;;;;;4.43;3.20;;;;;;;8.86;60.88;93913.06;6309223;22;20024;-86
2024/03/01 21:29:47;;;;;;;4.00;3.22;;;;;;;8.89;61.29;93913.47;6254280;22;20089;-86
2024/03/01 21:32:13;;;;;;;5.35;3.90;;;;;;;8.97;60.99;93902.88;6279381;22;20098;-86
2024/03/01 21:34:38;;;;;;;5.43;3.67;;;;;;;8.83;60.97;93909.06;6306316;22;20003;-87
2024/03/01 21:37:04;;;;;;;4.72;3.63;;;;;;;8.84;60.99;93910.66;6229697;22;20011;-87
2024/03/01 21:39:29;;;;;;;4.95;3.75;;;;;;;8.59;62.13;93895.69;6254602;22;20011;-87
2024/03/01 21:44:20;;;;;;;5.10;3.50;;;;;;;8.55;62.01;93894.47;6305644;22;20026;-87
2024/03/01 21:46:48;;;;;;;5.30;4.00;;;;;;;8.69;61.99;93879.72;6228379;22;20019;-87
2024/03/01 21:49:13;;;;;;;5.50;3.75;;;;;;;8.77;61.28;93876.16;6304243;22;20098;-86
2024/03/01 22:03:42;;;;;;;3.85;3.45;;;;;;;8.58;61.24;93870.75;6284297;22;20092;-87
2024/03/01 22:06:07;;;;;;;4.25;3.25;;;;;;;8.52;61.40;93861.19;6193321;23;20019;-88
2024/03/01 22:08:33;;;;;;;3.95;3.15;;;;;;;8.43;61.59;93851.19;6193612;23;20040;-87
2024/03/01 22:10:58;;;;;;;5.25;3.05;;;;;;;8.39;61.62;93841.19;6226512;23;19996;-87
2024/03/01 22:15:49;;;;;;;3.83;2.63;;;;;;;8.77;60.45;93852.81;6249914;22;20012;-88
2024/03/01 22:20:43;;;;;;;3.33;2.85;;;;;;;8.61;60.84;93830.69;6275955;22;20019;-87
2024/03/01 22:23:09;;;;;;;3.55;2.90;;;;;;;8.65;60.96;93834.47;6228156;22;20067;-87
2024/03/01 22:25:34;;;;;;;3.78;3.13;;;;;;;8.76;60.69;93825.31;6278901;22;20083;-85
2024/03/01 22:30:25;;;;;;;3.65;3.00;;;;;;;8.76;60.72;93820.13;6304882;22;20030;-87
2024/03/01 22:32:55;;;;;;;4.70;3.47;;;;;;;8.80;60.53;93811.75;6278300;22;20009;-86
2024/03/01 22:35:21;;;;;;;3.97;3.15;;;;;;;8.89;60.05;93811.53;6253186;22;20008;-86
2024/03/01 22:50:42;;;;;;;5.25;2.83;;;;;;;9.02;59.88;93792.56;6304875;22;20015;-87
2024/03/01 23:00:48;;;;;;;5.15;2.65;;;;;;;8.87;60.00;93780.63;6304865;22;20026;-86
2024/03/01 23:03:36;;;;;;;2.92;2.60;;;;;;;8.80;60.67;93795.38;6278636;22;20070;-86
2024/03/01 23:06:05;;;;;;;2.80;2.28;;;;;;;8.54;61.12;93786.63;6304041;22;20043;-87
2024/03/01 23:08:57;;;;;;;3.58;2.60;;;;;;;8.67;61.13;93779.84;6228320;22;20086;-87
2024/03/01 23:11:22;;;;;;;4.13;2.53;;;;;;;8.50;61.21;93780.25;6278739;22;19999;-87
2024/03/01 23:13:48;;;;;;;3.15;2.65;;;;;;;8.54;61.53;93765.88;6278347;22;20053;-86
2024/03/01 23:21:56;;;;;;;4.25;2.80;;;;;;;9.03;60.25;93773.41;6279678;22;20067;-87
2024/03/01 23:30:23;;;;;;;3.78;2.70;;;;;;;9.35;59.02;93761.34;6243829;23;20039;-86
2024/03/01 23:32:48;;;;;;;3.00;2.53;;;;;;;9.34;59.24;93760.53;6192292;23;20019;-87
2024/03/01 23:48:42;;;;;;;3.22;1.80;;;;;;;9.09;59.97;93772.59;6269506;22;20028;-87
